Time;durP1;ratioP1;P1;durP2;ratioP2;P2;SDS_P1;SDS_P2;PMS_P1;PMS_P2;Temp;Humidity;BMP_temperature;BMP_pressure;BME280_temperature;BME280_humidity;BME280_pressure;Samples;Min_cycle;Max_cycle;Signal;HPM_P1;HPM_P2
2021/01/08 00:00:50;;;;;;;3.22;1.17;;;1.90;58.00;;;;;;5025827;28;80937;-69
2021/01/08 00:03:16;;;;;;;1.90;0.77;;;1.90;58.00;;;;;;5027017;28;79947;-76
2021/01/08 00:05:41;;;;;;;1.92;0.60;;;1.90;57.90;;;;;;5027446;28;80584;-86
2021/01/08 00:08:10;;;;;;;5.32;1.08;;;1.90;57.70;;;;;;5025465;28;81606;-74
2021/01/08 00:10:35;;;;;;;2.85;1.08;;;2.00;57.30;;;;;;5026746;28;81152;-83
2021/01/08 00:13:01;;;;;;;4.88;2.25;;;2.00;57.00;;;;;;5025358;28;80847;-75
2021/01/08 00:15:27;;;;;;;3.85;1.40;;;2.00;57.20;;;;;;5026972;28;80503;-78
2021/01/08 00:17:53;;;;;;;4.97;1.00;;;2.00;56.60;;;;;;5025377;28;80868;-71
2021/01/08 00:20:20;;;;;;;1.90;0.85;;;2.00;56.80;;;;;;5025354;28;83075;-70
2021/01/08 00:22:46;;;;;;;2.25;1.08;;;2.00;56.90;;;;;;5024944;28;82496;-75
2021/01/08 00:25:12;;;;;;;2.38;1.05;;;1.90;56.80;;;;;;5025229;28;81112;-73
2021/01/08 00:27:38;;;;;;;2.15;1.00;;;1.90;56.50;;;;;;5026845;28;80054;-70
2021/01/08 00:30:06;;;;;;;2.22;0.93;;;1.90;56.70;;;;;;5026635;28;80488;-72
2021/01/08 00:32:32;;;;;;;3.00;1.10;;;1.90;56.80;;;;;;5025330;28;79723;-73
2021/01/08 00:34:58;;;;;;;2.78;1.33;;;1.90;57.10;;;;;;5026520;28;80535;-70
2021/01/08 00:37:24;;;;;;;3.60;1.27;;;1.90;57.00;;;;;;5025310;28;81281;-72
2021/01/08 00:39:51;;;;;;;3.10;1.10;;;1.80;56.80;;;;;;5025313;28;80681;-72
2021/01/08 00:42:17;;;;;;;2.35;0.70;;;1.80;56.80;;;;;;5025189;28;80745;-73
2021/01/08 00:44:43;;;;;;;3.65;0.80;;;1.80;56.70;;;;;;5025369;28;80004;-69
2021/01/08 00:47:09;;;;;;;2.97;0.90;;;1.80;56.20;;;;;;5028681;28;82449;-69
2021/01/08 00:49:35;;;;;;;2.50;0.95;;;1.80;56.60;;;;;;5028390;28;82629;-68
2021/01/08 00:52:02;;;;;;;3.05;1.05;;;1.80;56.60;;;;;;5029975;28;80824;-69
2021/01/08 00:54:28;;;;;;;3.15;1.05;;;1.70;56.60;;;;;;5031847;28;82893;-79
2021/01/08 00:56:54;;;;;;;2.30;0.70;;;1.70;56.70;;;;;;5029410;28;80330;-79
2021/01/08 00:59:20;;;;;;;1.55;0.60;;;1.70;56.70;;;;;;5030357;28;80394;-79
2021/01/08 01:01:45;;;;;;;3.97;0.65;;;1.70;56.50;;;;;;5028476;28;81309;-71
2021/01/08 01:04:11;;;;;;;2.42;0.70;;;1.70;56.60;;;;;;5027751;28;82827;-66
2021/01/08 01:06:37;;;;;;;2.28;0.70;;;1.70;56.60;;;;;;5028870;28;80637;-69
2021/01/08 01:09:04;;;;;;;2.17;0.85;;;1.60;56.20;;;;;;5032180;28;80501;-68
2021/01/08 01:11:30;;;;;;;1.33;0.65;;;1.70;56.40;;;;;;5034989;28;79949;-77
2021/01/08 01:13:57;;;;;;;2.45;1.00;;;1.60;56.60;;;;;;5028900;28;81952;-79
2021/01/08 01:16:25;;;;;;;3.72;1.10;;;1.60;57.10;;;;;;5029894;28;80342;-75
2021/01/08 01:18:52;;;;;;;3.78;1.17;;;1.50;57.20;;;;;;5028102;28;82379;-80
2021/01/08 01:21:19;;;;;;;2.60;0.80;;;1.50;57.20;;;;;;5028483;28;80771;-78
2021/01/08 01:23:44;;;;;;;1.60;0.65;;;1.60;57.30;;;;;;5028413;28;80760;-83
2021/01/08 01:26:11;;;;;;;3.10;0.85;;;1.50;57.20;;;;;;5029639;28;80379;-70
2021/01/08 01:28:37;;;;;;;4.93;1.15;;;1.60;57.00;;;;;;5029597;28;80330;-69
2021/01/08 01:31:04;;;;;;;3.15;1.08;;;1.50;56.90;;;;;;5029524;28;80174;-70
2021/01/08 01:33:30;;;;;;;5.05;0.93;;;1.60;57.00;;;;;;5029369;28;80708;-68
2021/01/08 01:35:56;;;;;;;4.10;1.25;;;1.60;57.00;;;;;;5029384;28;80172;-69
2021/01/08 01:38:23;;;;;;;2.53;0.75;;;1.60;57.00;;;;;;5027655;28;81962;-70
2021/01/08 01:40:49;;;;;;;3.03;0.90;;;1.60;56.90;;;;;;5027857;28;80629;-75
2021/01/08 01:43:16;;;;;;;1.73;0.70;;;1.60;56.90;;;;;;5029269;28;79989;-68
2021/01/08 01:45:42;;;;;;;2.13;0.70;;;1.70;56.70;;;;;;5027652;28;82713;-71
2021/01/08 01:48:09;;;;;;;1.60;0.60;;;1.80;56.70;;;;;;5030311;28;79666;-68
2021/01/08 01:50:35;;;;;;;2.53;0.98;;;1.80;56.70;;;;;;5028586;28;80286;-82
2021/01/08 01:53:02;;;;;;;2.40;1.08;;;1.90;56.20;;;;;;5028528;28;80931;-69
2021/01/08 01:55:29;;;;;;;2.30;0.63;;;1.90;56.30;;;;;;5029075;28;80666;-71
2021/01/08 01:57:56;;;;;;;2.45;1.05;;;2.00;55.70;;;;;;5028179;28;80161;-74
2021/01/08 02:00:22;;;;;;;1.80;0.70;;;2.10;55.70;;;;;;5027309;28;82214;-72
2021/01/08 02:02:52;;;;;;;2.42;0.82;;;2.20;55.70;;;;;;5027569;28;83524;-72
2021/01/08 02:05:20;;;;;;;3.63;1.13;;;2.20;55.50;;;;;;5027039;28;82265;-69
2021/01/08 02:07:53;;;;;;;2.80;1.08;;;2.30;55.30;;;;;;5028967;28;79827;-68
2021/01/08 02:10:19;;;;;;;2.92;1.10;;;2.30;55.10;;;;;;5027452;28;82811;-77
2021/01/08 02:12:45;;;;;;;2.80;0.75;;;2.30;55.00;;;;;;5028894;28;80606;-78
2021/01/08 02:15:12;;;;;;;2.58;0.70;;;2.40;55.00;;;;;;5028571;28;80075;-80
2021/01/08 02:17:39;;;;;;;3.15;1.08;;;2.40;55.00;;;;;;5029019;28;80595;-83
2021/01/08 02:20:07;;;;;;;3.08;0.90;;;2.40;54.90;;;;;;5027380;28;82264;-75
2021/01/08 02:22:55;;;;;;;3.67;0.98;;;2.40;54.70;;;;;;5027267;28;80858;-74
2021/01/08 02:25:25;;;;;;;4.40;1.00;;;2.40;54.70;;;;;;5025824;28;80884;-80
2021/01/08 02:28:18;;;;;;;2.85;1.17;;;2.40;54.60;;;;;;5028700;28;80541;-79
2021/01/08 02:30:45;;;;;;;3.00;1.00;;;2.40;54.70;;;;;;5028517;28;79673;-73
2021/01/08 02:33:11;;;;;;;3.45;1.58;;;2.40;54.60;;;;;;5027072;28;80893;-75
2021/01/08 02:35:38;;;;;;;2.47;1.00;;;2.40;54.40;;;;;;5027774;28;80808;-71
2021/01/08 02:38:05;;;;;;;3.47;1.08;;;2.50;54.30;;;;;;5028962;28;79864;-79
2021/01/08 02:40:31;;;;;;;2.47;0.82;;;2.40;54.50;;;;;;5027315;28;82203;-73
2021/01/08 02:43:06;;;;;;;3.90;1.58;;;2.50;54.40;;;;;;5031052;28;80459;-72
2021/01/08 02:45:33;;;;;;;2.63;1.20;;;2.50;54.30;;;;;;5031324;28;80459;-72
2021/01/08 02:47:59;;;;;;;2.50;0.95;;;2.50;54.30;;;;;;5029174;28;81561;-86
2021/01/08 02:50:26;;;;;;;3.13;1.10;;;2.50;54.40;;;;;;5027859;28;80457;-80
2021/01/08 02:52:59;;;;;;;2.90;1.10;;;2.60;54.20;;;;;;5027066;28;79964;-71
2021/01/08 02:55:31;;;;;;;2.63;1.20;;;2.60;54.30;;;;;;5026929;28;81601;-72
2021/01/08 02:57:59;;;;;;;2.40;0.93;;;2.60;54.10;;;;;;5026477;28;83201;-85
2021/01/08 03:00:30;;;;;;;1.75;0.85;;;2.60;54.10;;;;;;5026325;28;82184;-70
2021/01/08 03:02:57;;;;;;;2.70;0.82;;;2.60;54.00;;;;;;5026522;28;81114;-68
2021/01/08 03:05:23;;;;;;;2.65;0.95;;;2.60;54.10;;;;;;5027985;28;80129;-72
2021/01/08 03:07:50;;;;;;;3.50;1.30;;;2.60;54.10;;;;;;5028615;28;81101;-74
2021/01/08 03:10:17;;;;;;;3.33;1.23;;;2.60;54.10;;;;;;5028172;28;80413;-78
2021/01/08 03:12:52;;;;;;;2.80;1.02;;;2.70;54.20;;;;;;5026153;28;80628;-70
2021/01/08 03:15:18;;;;;;;7.50;2.45;;;2.70;53.90;;;;;;5028512;28;79830;-75
2021/01/08 03:17:44;;;;;;;3.50;1.20;;;2.70;53.70;;;;;;5026919;28;80996;-85
2021/01/08 03:20:10;;;;;;;2.42;0.98;;;2.70;53.80;;;;;;5027305;28;80078;-75
2021/01/08 03:22:36;;;;;;;3.70;0.95;;;2.60;53.70;;;;;;5028141;28;82591;-84
2021/01/08 03:25:02;;;;;;;1.85;0.65;;;2.70;53.80;;;;;;5029619;28;80039;-80
2021/01/08 03:27:28;;;;;;;2.65;1.13;;;2.60;53.80;;;;;;5026748;28;83500;-83
2021/01/08 03:29:53;;;;;;;2.95;1.38;;;2.60;53.90;;;;;;5028512;28;79950;-80
2021/01/08 03:32:19;;;;;;;2.67;0.93;;;2.60;54.00;;;;;;5026350;28;81645;-74
2021/01/08 03:34:45;;;;;;;3.88;1.25;;;2.60;53.90;;;;;;5029500;28;80853;-71
2021/01/08 03:37:11;;;;;;;2.58;0.90;;;2.60;53.90;;;;;;5033590;28;79676;-75
2021/01/08 03:39:36;;;;;;;3.17;1.40;;;2.70;53.90;;;;;;5028876;28;80722;-70
2021/01/08 03:42:02;;;;;;;2.38;0.98;;;2.70;53.90;;;;;;5027428;28;80725;-68
2021/01/08 03:44:28;;;;;;;2.80;1.05;;;2.80;53.70;;;;;;5026278;28;82190;-70
2021/01/08 03:46:54;;;;;;;2.63;1.02;;;2.70;53.90;;;;;;5026013;28;82613;-67
2021/01/08 03:49:20;;;;;;;3.67;1.50;;;2.80;53.90;;;;;;5026224;28;79866;-68
2021/01/08 03:51:45;;;;;;;4.20;1.15;;;2.80;54.00;;;;;;5025162;28;82886;-67
2021/01/08 03:54:11;;;;;;;3.03;0.80;;;2.80;54.10;;;;;;5025674;28;80399;-76
2021/01/08 03:56:37;;;;;;;2.55;1.05;;;2.80;54.00;;;;;;5025603;28;81012;-82
2021/01/08 03:59:02;;;;;;;3.17;1.20;;;2.70;54.10;;;;;;5026413;28;83536;-81
2021/01/08 04:01:28;;;;;;;3.50;1.30;;;2.70;54.00;;;;;;5027178;28;81037;-70
2021/01/08 04:03:54;;;;;;;2.05;0.73;;;2.80;54.20;;;;;;5025591;28;80374;-67
2021/01/08 04:06:20;;;;;;;4.60;1.60;;;2.70;54.50;;;;;;5025466;28;81074;-77
2021/01/08 04:08:46;;;;;;;1.98;0.90;;;2.70;54.50;;;;;;5026910;28;80754;-83
2021/01/08 04:11:11;;;;;;;2.83;1.38;;;2.70;54.60;;;;;;5027367;28;79714;-84
2021/01/08 04:13:37;;;;;;;2.92;0.90;;;2.70;54.60;;;;;;5025230;28;83261;-83
2021/01/08 04:16:03;;;;;;;3.08;0.95;;;2.60;54.80;;;;;;5025497;28;82341;-86
2021/01/08 04:18:29;;;;;;;2.97;1.20;;;2.60;55.10;;;;;;5025635;28;80324;-84
2021/01/08 04:20:54;;;;;;;2.92;1.10;;;2.50;55.10;;;;;;5024872;28;81158;-70
2021/01/08 04:23:20;;;;;;;4.13;1.23;;;2.50;55.20;;;;;;5026968;28;80366;-73
2021/01/08 04:25:46;;;;;;;2.97;1.23;;;2.50;55.20;;;;;;5025279;28;81508;-67
2021/01/08 04:28:12;;;;;;;3.10;1.27;;;2.60;55.20;;;;;;5026919;28;80103;-72
2021/01/08 04:30:38;;;;;;;2.33;1.00;;;2.50;55.00;;;;;;5026695;28;80494;-66
2021/01/08 04:33:04;;;;;;;2.97;1.10;;;2.50;54.90;;;;;;5027198;28;80611;-67
2021/01/08 04:35:30;;;;;;;2.85;1.33;;;2.50;55.00;;;;;;5025142;28;80702;-70
2021/01/08 04:37:55;;;;;;;3.80;1.17;;;2.40;55.00;;;;;;5025330;28;80770;-67
2021/01/08 04:40:21;;;;;;;3.88;1.17;;;2.50;55.20;;;;;;5027318;28;79535;-68
2021/01/08 04:42:47;;;;;;;2.80;1.15;;;2.50;55.20;;;;;;5025071;28;81679;-68
2021/01/08 04:45:14;;;;;;;2.20;0.85;;;2.50;55.00;;;;;;5025102;28;80728;-67
2021/01/08 04:47:39;;;;;;;2.70;1.00;;;2.40;54.90;;;;;;5024130;28;82681;-82
2021/01/08 04:50:06;;;;;;;2.67;0.93;;;2.40;54.90;;;;;;5025253;28;81009;-75
2021/01/08 04:52:33;;;;;;;4.45;1.20;;;2.50;54.80;;;;;;5024670;28;82729;-68
2021/01/08 04:55:00;;;;;;;2.28;1.00;;;2.50;54.80;;;;;;5024701;28;80864;-77
2021/01/08 04:57:28;;;;;;;3.13;1.00;;;2.60;54.70;;;;;;5025623;28;79961;-80
2021/01/08 04:59:54;;;;;;;3.28;1.10;;;2.60;54.70;;;;;;5026358;28;80722;-71
2021/01/08 05:02:20;;;;;;;3.67;1.83;;;2.60;54.70;;;;;;5026887;28;79812;-70
2021/01/08 05:04:46;;;;;;;5.15;1.30;;;2.60;54.70;;;;;;5026304;28;80403;-72
2021/01/08 05:07:12;;;;;;;3.40;1.20;;;2.60;54.50;;;;;;5025343;28;80692;-80
2021/01/08 05:09:38;;;;;;;3.47;1.55;;;2.60;54.40;;;;;;5026575;28;80899;-68
2021/01/08 05:12:04;;;;;;;4.63;1.23;;;2.70;54.60;;;;;;5025705;28;80700;-72
2021/01/08 05:14:33;;;;;;;5.20;1.38;;;2.60;54.10;;;;;;5026183;28;80593;-74
2021/01/08 05:16:58;;;;;;;2.88;0.90;;;2.60;54.40;;;;;;5024449;28;81721;-82
2021/01/08 05:19:24;;;;;;;5.18;1.30;;;2.60;54.40;;;;;;5024754;28;81044;-76
2021/01/08 05:21:53;;;;;;;2.67;1.20;;;2.70;54.40;;;;;;5026359;28;80068;-81
2021/01/08 05:24:22;;;;;;;2.22;1.00;;;2.70;54.50;;;;;;5026302;28;81112;-71
2021/01/08 05:26:48;;;;;;;2.28;0.80;;;2.70;54.70;;;;;;5024747;28;81682;-67
2021/01/08 05:29:14;;;;;;;3.90;1.55;;;2.70;54.50;;;;;;5024295;28;81133;-67
2021/01/08 05:31:41;;;;;;;2.72;0.90;;;2.70;54.50;;;;;;5026554;28;79874;-68
2021/01/08 05:34:07;;;;;;;3.80;1.27;;;2.70;54.40;;;;;;5027597;28;80685;-73
2021/01/08 05:36:35;;;;;;;4.50;1.15;;;2.60;54.40;;;;;;5027867;28;83154;-68
2021/01/08 05:39:01;;;;;;;4.82;1.25;;;2.70;54.70;;;;;;5027527;28;82590;-73
2021/01/08 05:41:29;;;;;;;5.95;1.65;;;2.60;54.60;;;;;;5027648;28;82667;-72
2021/01/08 05:43:56;;;;;;;5.47;1.92;;;2.60;54.70;;;;;;5029599;28;81210;-66
2021/01/08 05:46:34;;;;;;;6.32;1.75;;;2.70;54.50;;;;;;5027683;28;80333;-66
2021/01/08 05:49:06;;;;;;;25.70;2.65;;;2.60;54.80;;;;;;5027914;28;83092;-76
2021/01/08 05:51:39;;;;;;;3.70;1.25;;;2.70;54.70;;;;;;5029112;28;80497;-76
2021/01/08 05:54:05;;;;;;;;;;;2.60;54.40;;;;;;5029068;28;80866;-75
2021/01/08 05:56:35;;;;;;;3.53;1.30;;;2.60;54.40;;;;;;5032833;28;79317;-83
2021/01/08 05:59:11;;;;;;;2.60;1.13;;;2.60;54.80;;;;;;5027977;28;83506;-75
2021/01/08 06:01:39;;;;;;;4.93;1.55;;;2.60;54.80;;;;;;5028117;28;80854;-74
2021/01/08 06:04:07;;;;;;;5.63;1.77;;;2.60;54.60;;;;;;5027842;28;81018;-68
2021/01/08 06:06:40;;;;;;;4.82;1.55;;;2.60;54.70;;;;;;5027757;28;82609;-76
2021/01/08 06:09:07;;;;;;;5.50;1.90;;;2.70;54.50;;;;;;5028981;28;80588;-68
2021/01/08 06:11:36;;;;;;;5.25;1.80;;;2.60;54.60;;;;;;5026992;28;82967;-72
2021/01/08 06:14:03;;;;;;;3.75;1.70;;;2.60;54.70;;;;;;5028420;28;81973;-71
2021/01/08 06:16:39;;;;;;;6.78;2.75;;;2.50;54.70;;;;;;5028710;28;80274;-80
2021/01/08 06:19:06;;;;;;;6.47;2.22;;;2.60;55.00;;;;;;5027052;28;81805;-78
2021/01/08 06:21:37;;;;;;;4.53;1.50;;;2.60;55.20;;;;;;5029035;28;80190;-67
2021/01/08 06:24:03;;;;;;;5.97;2.33;;;2.60;55.10;;;;;;5028248;28;79894;-71
2021/01/08 06:26:32;;;;;;;6.38;2.08;;;2.60;54.80;;;;;;5027665;28;82414;-68
2021/01/08 06:29:03;;;;;;;5.80;1.83;;;2.70;54.90;;;;;;5027977;28;82757;-76
2021/01/08 06:32:00;;;;;;;11.32;3.05;;;2.70;54.80;;;;;;5028274;28;80454;-79
2021/01/08 06:34:29;;;;;;;8.05;2.38;;;2.70;54.90;;;;;;5024262;28;83586;-68
2021/01/08 06:37:11;;;;;;;4.50;1.75;;;2.60;54.50;;;;;;5026801;28;80813;-69
2021/01/08 06:39:38;;;;;;;9.80;2.37;;;2.60;55.00;;;;;;5026683;28;82623;-69
2021/01/08 06:42:05;;;;;;;4.97;1.92;;;2.60;54.80;;;;;;5026825;28;81475;-69
2021/01/08 06:44:31;;;;;;;4.97;1.70;;;2.60;55.00;;;;;;5028120;28;80719;-68
2021/01/08 06:47:00;;;;;;;3.60;1.67;;;2.60;54.90;;;;;;5026790;28;80814;-71
2021/01/08 06:49:29;;;;;;;8.35;1.65;;;2.60;54.90;;;;;;5026462;28;81534;-72
2021/01/08 06:51:55;;;;;;;5.28;1.98;;;2.60;55.00;;;;;;5026683;28;80591;-69
2021/01/08 06:54:26;;;;;;;5.18;1.40;;;2.70;54.70;;;;;;5027890;28;80590;-69
2021/01/08 06:56:57;;;;;;;3.60;1.40;;;2.70;54.90;;;;;;5026762;28;79880;-72
2021/01/08 06:59:26;;;;;;;5.28;2.50;;;2.70;54.90;;;;;;5026761;28;80631;-73
2021/01/08 07:02:17;;;;;;;5.30;1.55;;;2.70;55.00;;;;;;5026219;28;82252;-70
2021/01/08 07:04:43;;;;;;;6.10;1.80;;;2.70;54.90;;;;;;5028487;28;81209;-72
2021/01/08 07:07:14;;;;;;;4.47;1.33;;;2.70;54.90;;;;;;5026403;28;81562;-75
2021/01/08 07:09:40;;;;;;;4.93;2.00;;;2.70;55.00;;;;;;5028211;28;80618;-76
2021/01/08 07:12:09;;;;;;;4.85;1.42;;;2.70;55.00;;;;;;5026514;28;79879;-77
2021/01/08 07:14:36;;;;;;;4.85;1.63;;;2.60;55.10;;;;;;5028378;28;80712;-86
2021/01/08 07:17:05;;;;;;;3.28;1.40;;;2.60;55.40;;;;;;5028442;28;80003;-87
2021/01/08 07:19:31;;;;;;;3.90;1.70;;;2.60;55.40;;;;;;5026589;28;83852;-85
2021/01/08 07:22:01;;;;;;;5.63;2.10;;;2.60;55.40;;;;;;5026290;28;80461;-84
2021/01/08 07:24:37;;;;;;;5.97;1.80;;;2.70;55.40;;;;;;5026334;28;80769;-84
2021/01/08 07:27:16;;;;;;;6.60;2.08;;;2.70;55.60;;;;;;5026080;28;80402;-74
2021/01/08 07:29:57;;;;;;;5.68;1.83;;;2.60;55.80;;;;;;5028074;28;80110;-68
2021/01/08 07:32:37;;;;;;;6.43;2.10;;;2.70;55.90;;;;;;5027775;28;80189;-68
2021/01/08 07:35:31;;;;;;;4.50;1.80;;;2.80;56.10;;;;;;5025888;28;79981;-71
2021/01/08 07:38:07;;;;;;;4.10;1.63;;;2.90;56.00;;;;;;5025696;28;82633;-71
2021/01/08 07:40:49;;;;;;;4.80;2.00;;;2.90;55.90;;;;;;5027242;28;80974;-71
2021/01/08 07:43:17;;;;;;;4.85;1.83;;;2.90;55.80;;;;;;5027678;28;80275;-69
2021/01/08 07:45:53;;;;;;;4.75;2.05;;;2.90;55.90;;;;;;5025872;28;80830;-68
2021/01/08 07:48:19;;;;;;;7.93;2.22;;;3.00;55.90;;;;;;5027471;28;80266;-68
2021/01/08 07:50:52;;;;;;;5.78;2.47;;;2.90;55.80;;;;;;5027853;28;79811;-68
2021/01/08 07:53:43;;;;;;;5.57;1.70;;;2.90;55.90;;;;;;5025636;28;82494;-68
2021/01/08 07:56:24;;;;;;;7.15;2.00;;;2.90;56.00;;;;;;5025280;28;83019;-67
2021/01/08 07:59:08;;;;;;;6.72;2.63;;;2.90;56.10;;;;;;5027211;28;80614;-68
2021/01/08 08:01:35;;;;;;;5.72;2.38;;;2.90;56.00;;;;;;5027342;28;80593;-68
2021/01/08 08:04:08;;;;;;;8.00;2.45;;;2.90;56.00;;;;;;5025517;28;82065;-70
2021/01/08 08:06:36;;;;;;;5.75;2.22;;;3.00;56.00;;;;;;5027167;28;80786;-69
2021/01/08 08:09:04;;;;;;;7.60;2.72;;;3.00;55.90;;;;;;5025164;28;83083;-69
2021/01/08 08:11:33;;;;;;;4.88;2.00;;;3.10;56.10;;;;;;5025124;28;80700;-74
2021/01/08 08:14:00;;;;;;;8.15;2.30;;;3.20;56.00;;;;;;5026155;28;79892;-69
2021/01/08 08:16:34;;;;;;;7.78;2.15;;;3.20;55.80;;;;;;5025510;28;80203;-70
2021/01/08 08:19:00;;;;;;;4.78;1.67;;;3.20;55.90;;;;;;5027362;28;79990;-69
2021/01/08 08:21:26;;;;;;;4.55;1.77;;;3.20;55.90;;;;;;5025250;28;81800;-69
2021/01/08 08:23:57;;;;;;;4.38;2.45;;;3.30;55.70;;;;;;5025498;28;80421;-69
2021/01/08 08:26:24;;;;;;;6.25;2.00;;;3.40;55.50;;;;;;5025173;28;81291;-70
2021/01/08 08:29:12;;;;;;;6.28;1.92;;;3.40;55.60;;;;;;5026830;28;80063;-69
2021/01/08 08:31:40;;;;;;;6.63;2.50;;;3.50;55.50;;;;;;5026819;28;79927;-68
2021/01/08 08:34:10;;;;;;;10.23;2.95;;;3.60;55.30;;;;;;5024950;28;81491;-69
2021/01/08 08:36:37;;;;;;;5.22;1.95;;;3.60;55.20;;;;;;5025216;28;82447;-69
2021/01/08 08:39:15;;;;;;;5.60;2.05;;;3.60;54.90;;;;;;5025041;28;80511;-71
2021/01/08 08:41:45;;;;;;;6.50;2.47;;;3.60;55.00;;;;;;5024604;28;83262;-68
2021/01/08 08:44:14;;;;;;;9.93;2.25;;;3.70;55.00;;;;;;5024992;28;79950;-69
2021/01/08 08:46:51;;;;;;;7.75;2.33;;;3.70;54.90;;;;;;5026550;28;80991;-69
2021/01/08 08:49:19;;;;;;;7.45;1.88;;;3.80;54.90;;;;;;5024953;28;83103;-69
2021/01/08 08:51:47;;;;;;;5.40;1.90;;;3.80;54.60;;;;;;5024932;28;79899;-67
2021/01/08 08:54:14;;;;;;;6.97;2.50;;;3.80;54.50;;;;;;5024761;28;82922;-68
2021/01/08 08:56:56;;;;;;;6.35;2.03;;;3.80;54.40;;;;;;5026375;28;80671;-68
2021/01/08 08:59:38;;;;;;;5.97;2.20;;;3.90;54.70;;;;;;5024529;28;82474;-68
2021/01/08 09:02:09;;;;;;;8.65;1.70;;;3.90;54.30;;;;;;5026382;28;80530;-67
2021/01/08 09:04:35;;;;;;;5.47;2.00;;;3.90;54.30;;;;;;5023576;28;82648;-68
2021/01/08 09:07:15;;;;;;;4.18;1.95;;;3.90;54.10;;;;;;5027759;28;80522;-67
2021/01/08 09:09:45;;;;;;;5.93;2.30;;;3.90;54.20;;;;;;5028076;28;82346;-67
2021/01/08 09:12:29;;;;;;;6.15;2.05;;;3.90;54.30;;;;;;5029443;28;79988;-67
2021/01/08 09:15:13;;;;;;;9.23;2.67;;;3.80;54.10;;;;;;5029771;28;80209;-67
2021/01/08 09:17:44;;;;;;;4.60;1.85;;;3.90;54.40;;;;;;5028033;28;80872;-67
2021/01/08 09:20:15;;;;;;;5.88;2.15;;;4.00;54.10;;;;;;5027941;28;80534;-67
2021/01/08 09:22:42;;;;;;;5.03;2.30;;;4.10;54.00;;;;;;5029806;28;80761;-68
2021/01/08 09:25:09;;;;;;;6.97;2.33;;;4.10;53.90;;;;;;5029497;28;80473;-68
2021/01/08 09:27:35;;;;;;;6.15;2.15;;;4.20;53.90;;;;;;5028073;28;81699;-68
2021/01/08 09:30:09;;;;;;;7.43;2.20;;;4.10;53.90;;;;;;5029222;28;80314;-67
2021/01/08 09:32:35;;;;;;;7.32;2.97;;;4.20;53.80;;;;;;5027974;28;81827;-68
2021/01/08 09:35:04;;;;;;;4.68;1.80;;;4.20;53.90;;;;;;5027059;28;82743;-68
2021/01/08 09:37:39;;;;;;;5.20;2.25;;;4.20;53.80;;;;;;5027684;28;82447;-68
2021/01/08 09:40:13;;;;;;;5.03;2.08;;;4.20;53.70;;;;;;5029434;28;80727;-68
2021/01/08 09:42:39;;;;;;;6.75;2.22;;;4.20;53.80;;;;;;5028320;28;82472;-68
2021/01/08 09:45:26;;;;;;;4.53;1.98;;;4.20;53.70;;;;;;5029549;28;79636;-67
2021/01/08 09:47:53;;;;;;;4.95;2.30;;;4.20;53.70;;;;;;5028021;28;81282;-67
2021/01/08 09:50:27;;;;;;;7.70;2.42;;;4.30;53.70;;;;;;5027628;28;80115;-68
2021/01/08 09:53:00;;;;;;;6.72;2.70;;;4.40;53.60;;;;;;5029192;28;79823;-68
2021/01/08 09:55:30;;;;;;;7.90;3.55;;;4.50;53.50;;;;;;5027714;28;82997;-68
2021/01/08 09:58:01;;;;;;;8.23;2.53;;;4.50;53.30;;;;;;5027409;28;82685;-68
2021/01/08 10:00:29;;;;;;;6.65;2.72;;;4.50;53.40;;;;;;5027969;28;79808;-68
2021/01/08 10:02:56;;;;;;;5.18;2.20;;;4.40;53.30;;;;;;5027495;28;80616;-68
2021/01/08 10:05:22;;;;;;;6.78;2.40;;;4.40;53.50;;;;;;5027452;28;82070;-68
2021/01/08 10:07:49;;;;;;;7.30;2.50;;;4.40;53.80;;;;;;5027506;28;80792;-70
2021/01/08 10:10:15;;;;;;;6.18;2.47;;;4.40;54.40;;;;;;5028821;28;80308;-69
2021/01/08 10:12:48;;;;;;;6.35;2.92;;;4.40;55.10;;;;;;5027091;28;82068;-69
2021/01/08 10:15:16;;;;;;;8.48;3.67;;;4.40;55.40;;;;;;5027187;28;80861;-71
2021/01/08 10:17:50;;;;;;;5.00;2.28;;;4.40;56.10;;;;;;5028841;28;79726;-79
2021/01/08 10:20:24;;;;;;;6.03;2.58;;;4.40;57.30;;;;;;5028773;28;80178;-67
2021/01/08 10:22:52;;;;;;;7.00;2.28;;;4.40;58.20;;;;;;5027256;28;81241;-69
2021/01/08 10:25:24;;;;;;;9.43;3.65;;;4.40;58.70;;;;;;5027298;28;79841;-71
2021/01/08 10:27:50;;;;;;;6.63;3.08;;;4.40;59.30;;;;;;5027003;28;81176;-68
2021/01/08 10:30:16;;;;;;;7.38;3.47;;;4.40;59.30;;;;;;5028597;28;79793;-67
2021/01/08 10:32:48;;;;;;;7.40;2.42;;;4.50;59.30;;;;;;5028417;28;81103;-67
2021/01/08 10:35:18;;;;;;;5.07;2.92;;;4.50;59.30;;;;;;5028415;28;80852;-69
2021/01/08 10:37:46;;;;;;;7.85;2.80;;;4.40;59.40;;;;;;5026930;28;79870;-68
2021/01/08 10:40:12;;;;;;;5.95;2.78;;;4.40;59.60;;;;;;5026861;28;80731;-69
2021/01/08 10:42:38;;;;;;;5.25;2.60;;;4.50;59.20;;;;;;5025956;28;80233;-69
2021/01/08 10:45:05;;;;;;;9.48;3.72;;;4.50;58.80;;;;;;5026796;28;80016;-69
2021/01/08 10:47:31;;;;;;;7.63;3.30;;;4.60;58.80;;;;;;5025297;28;80230;-68
2021/01/08 10:49:59;;;;;;;5.38;2.50;;;4.60;58.50;;;;;;5028527;28;79794;-73
2021/01/08 10:52:26;;;;;;;6.57;3.05;;;4.60;58.90;;;;;;5026837;28;80392;-70
2021/01/08 10:54:52;;;;;;;7.20;3.45;;;4.60;59.20;;;;;;5027664;28;80091;-70
2021/01/08 10:57:18;;;;;;;10.43;3.28;;;4.60;59.70;;;;;;5024769;28;80559;-71
2021/01/08 10:59:44;;;;;;;8.23;4.13;;;4.50;60.00;;;;;;5025013;28;82575;-70
2021/01/08 11:02:13;;;;;;;7.03;3.22;;;4.50;60.70;;;;;;5026393;28;80930;-71
2021/01/08 11:04:43;;;;;;;6.63;3.05;;;4.40;60.90;;;;;;5028287;28;80890;-71
2021/01/08 11:07:11;;;;;;;4.93;3.05;;;4.40;61.60;;;;;;5028185;28;81237;-71
2021/01/08 11:09:37;;;;;;;6.45;3.70;;;4.40;61.60;;;;;;5026609;28;82698;-73
2021/01/08 11:12:04;;;;;;;7.35;2.88;;;4.40;62.00;;;;;;5026296;28;83132;-71
2021/01/08 11:14:29;;;;;;;5.68;2.55;;;4.40;62.30;;;;;;5026307;28;81059;-69
2021/01/08 11:16:55;;;;;;;6.78;3.13;;;4.40;62.70;;;;;;5027856;28;80548;-71
2021/01/08 11:19:21;;;;;;;7.05;3.63;;;4.40;63.10;;;;;;5026843;28;81611;-71
2021/01/08 11:21:51;;;;;;;7.65;3.13;;;4.40;63.60;;;;;;5028015;28;80982;-71
2021/01/08 11:24:17;;;;;;;7.50;3.78;;;4.40;63.70;;;;;;5027277;28;81996;-71
2021/01/08 11:26:42;;;;;;;9.38;3.30;;;4.40;63.80;;;;;;5027934;28;80698;-70
2021/01/08 11:29:08;;;;;;;8.25;3.97;;;4.40;64.20;;;;;;5027534;28;79903;-70
2021/01/08 11:31:35;;;;;;;11.32;3.70;;;4.30;64.60;;;;;;5026738;28;79886;-69
2021/01/08 11:34:02;;;;;;;10.20;4.43;;;4.30;65.10;;;;;;5026302;28;82179;-70
2021/01/08 11:36:28;;;;;;;8.73;3.53;;;4.30;65.40;;;;;;5027138;28;80879;-70
2021/01/08 11:38:54;;;;;;;7.57;3.88;;;4.20;65.70;;;;;;5027573;28;80384;-69
2021/01/08 11:41:21;;;;;;;8.07;3.40;;;4.20;66.20;;;;;;5025456;28;82734;-70
2021/01/08 11:43:47;;;;;;;9.60;4.00;;;4.30;66.40;;;;;;5026203;28;83309;-78
2021/01/08 11:46:20;;;;;;;9.60;4.00;;;4.30;66.60;;;;;;5027281;28;83606;-78
2021/01/08 11:48:47;;;;;;;7.80;4.03;;;4.20;66.80;;;;;;5027710;28;80367;-73
2021/01/08 11:51:16;;;;;;;9.30;3.75;;;4.20;67.10;;;;;;5028140;28;80363;-72
2021/01/08 11:53:43;;;;;;;9.60;3.90;;;4.20;67.80;;;;;;5027370;28;79810;-72
2021/01/08 11:56:10;;;;;;;8.85;3.95;;;4.20;68.10;;;;;;5027551;28;80874;-70
2021/01/08 11:58:40;;;;;;;10.38;4.10;;;4.20;67.90;;;;;;5027369;28;80114;-71
2021/01/08 12:01:06;;;;;;;8.40;3.95;;;4.20;68.00;;;;;;5027272;28;81909;-69
2021/01/08 12:03:34;;;;;;;8.57;4.32;;;4.10;68.90;;;;;;5027352;28;80270;-70
2021/01/08 12:06:00;;;;;;;9.20;4.40;;;4.10;69.40;;;;;;5025374;28;79753;-69
2021/01/08 12:08:26;;;;;;;8.07;4.47;;;4.20;69.50;;;;;;5025771;28;83644;-71
2021/01/08 12:10:52;;;;;;;11.07;4.13;;;4.30;69.60;;;;;;5025197;28;82895;-70
2021/01/08 12:13:19;;;;;;;11.32;4.45;;;4.30;69.40;;;;;;5026593;28;80582;-69
2021/01/08 12:15:45;;;;;;;9.27;4.00;;;4.30;69.40;;;;;;5026884;28;81104;-70
2021/01/08 12:18:13;;;;;;;9.32;4.07;;;4.40;69.50;;;;;;5025170;28;82262;-71
2021/01/08 12:20:39;;;;;;;7.85;3.78;;;4.40;69.60;;;;;;5026801;28;80425;-70
2021/01/08 12:23:05;;;;;;;9.00;4.40;;;4.40;69.20;;;;;;5026694;28;80797;-71
2021/01/08 12:25:38;;;;;;;8.65;5.20;;;4.40;69.30;;;;;;5025188;28;83563;-70
2021/01/08 12:28:08;;;;;;;12.82;4.97;;;4.50;69.20;;;;;;5025252;28;82611;-71
2021/01/08 12:30:34;;;;;;;9.68;4.32;;;4.40;69.40;;;;;;5027467;28;79912;-78
2021/01/08 12:33:01;;;;;;;9.45;4.28;;;4.40;69.50;;;;;;5026005;28;82190;-71
2021/01/08 12:35:28;;;;;;;9.35;4.53;;;4.40;69.60;;;;;;5025402;28;82136;-72
2021/01/08 12:37:54;;;;;;;10.05;4.45;;;4.40;69.40;;;;;;5025398;28;82359;-70
2021/01/08 12:40:21;;;;;;;9.65;5.00;;;4.40;69.10;;;;;;5026615;28;80796;-70
2021/01/08 12:42:48;;;;;;;42.60;5.20;;;4.40;69.10;;;;;;5028314;28;83421;-72
2021/01/08 12:45:15;;;;;;;10.43;5.13;;;4.40;69.20;;;;;;5028615;28;83026;-69
2021/01/08 12:47:41;;;;;;;9.82;4.07;;;4.40;69.60;;;;;;5028506;28;79857;-69
2021/01/08 12:50:07;;;;;;;8.63;4.95;;;4.50;69.30;;;;;;5028458;28;80688;-70
2021/01/08 12:52:33;;;;;;;8.77;4.05;;;4.60;69.30;;;;;;5028609;28;82740;-71
2021/01/08 12:55:00;;;;;;;7.90;4.47;;;4.70;69.00;;;;;;5030438;28;80519;-73
2021/01/08 12:57:25;;;;;;;9.10;4.25;;;4.70;69.00;;;;;;5028627;28;82537;-71
2021/01/08 12:59:51;;;;;;;10.73;4.65;;;4.60;69.10;;;;;;5030221;28;80522;-70
2021/01/08 13:02:17;;;;;;;9.63;4.43;;;4.60;69.70;;;;;;5030298;28;80080;-70
2021/01/08 13:04:43;;;;;;;9.05;3.97;;;4.70;69.90;;;;;;5028730;28;80641;-70